Time;durP1;ratioP1;P1;durP2;ratioP2;P2;SDS_P1;SDS_P2;PMS_P1;PMS_P2;Temp;Humidity;BMP_temperature;BMP_pressure;BME280_temperature;BME280_humidity;BME280_pressure;Samples;Min_cycle;Max_cycle;Signal;HPM_P1;HPM_P2
2022/10/05 00:00:18;;;;;;;26.43;20.70;;;;;;;;;;4980602;28;20759;-42
2022/10/05 00:02:45;;;;;;;24.10;19.70;;;;;;;;;;4982246;28;20185;-41
2022/10/05 00:05:24;;;;;;;27.43;21.73;;;;;;;;;;4976695;28;20204;-43
2022/10/05 00:07:51;;;;;;;26.13;19.90;;;;;;;;;;4973876;28;20462;-42
2022/10/05 00:10:18;;;;;;;24.43;19.97;;;;;;;;;;4977520;28;20630;-42
2022/10/05 00:12:45;;;;;;;29.87;22.37;;;;;;;;;;4976559;28;20181;-42
2022/10/05 00:15:12;;;;;;;25.43;20.37;;;;;;;;;;4981075;28;20251;-41
2022/10/05 00:17:40;;;;;;;25.17;21.67;;;;;;;;;;4979186;28;20279;-42
2022/10/05 00:20:19;;;;;;;24.27;19.93;;;;;;;;;;4978661;28;20672;-42
2022/10/05 00:22:45;;;;;;;25.13;20.23;;;;;;;;;;4979374;28;20907;-42
2022/10/05 00:25:16;;;;;;;25.33;20.17;;;;;;;;;;4978365;28;21677;-42
2022/10/05 00:27:43;;;;;;;25.30;20.83;;;;;;;;;;4979864;28;20450;-42
2022/10/05 00:30:19;;;;;;;27.93;20.93;;;;;;;;;;4981269;28;20602;-42
2022/10/05 00:32:46;;;;;;;26.33;20.53;;;;;;;;;;4999525;28;20343;-42
2022/10/05 00:35:13;;;;;;;26.27;22.30;;;;;;;;;;4981407;28;20238;-43
2022/10/05 00:37:39;;;;;;;29.33;22.87;;;;;;;;;;4981092;28;20188;-44
2022/10/05 00:40:12;;;;;;;24.97;20.90;;;;;;;;;;4977650;28;20195;-45
2022/10/05 00:42:43;;;;;;;28.60;22.23;;;;;;;;;;4978456;28;20181;-42
2022/10/05 00:45:15;;;;;;;29.93;22.03;;;;;;;;;;4980057;28;20649;-42
2022/10/05 00:47:44;;;;;;;27.30;21.47;;;;;;;;;;4983423;28;20675;-42
2022/10/05 00:50:25;;;;;;;30.20;22.53;;;;;;;;;;4978114;28;20177;-42
2022/10/05 00:53:03;;;;;;;27.73;22.30;;;;;;;;;;4981124;28;20180;-42
2022/10/05 00:55:44;;;;;;;30.77;22.63;;;;;;;;;;4983039;28;20271;-41
2022/10/05 00:58:25;;;;;;;28.87;23.30;;;;;;;;;;4980555;28;20447;-42
2022/10/05 01:01:10;;;;;;;29.57;22.80;;;;;;;;;;4976279;28;20240;-42
2022/10/05 01:03:45;;;;;;;28.77;23.13;;;;;;;;;;4981814;28;20454;-42
2022/10/05 01:06:15;;;;;;;30.83;22.87;;;;;;;;;;4983387;28;20895;-41
2022/10/05 01:08:59;;;;;;;28.77;24.90;;;;;;;;;;4982659;28;20184;-41
2022/10/05 01:11:32;;;;;;;33.67;24.17;;;;;;;;;;4973226;28;20742;-42
2022/10/05 01:14:10;;;;;;;29.57;23.50;;;;;;;;;;4977987;28;20169;-43
2022/10/05 01:16:54;;;;;;;31.33;23.73;;;;;;;;;;4980817;28;20612;-42
2022/10/05 01:19:38;;;;;;;28.87;23.37;;;;;;;;;;4983113;28;20185;-42
2022/10/05 01:22:09;;;;;;;30.03;23.37;;;;;;;;;;4969808;28;20215;-43
2022/10/05 01:24:40;;;;;;;30.47;23.93;;;;;;;;;;4978842;28;20177;-43
2022/10/05 01:27:29;;;;;;;29.27;22.70;;;;;;;;;;4970472;28;20188;-43
2022/10/05 01:30:03;;;;;;;26.00;21.83;;;;;;;;;;4972199;28;22161;-43
2022/10/05 01:32:29;;;;;;;34.70;26.33;;;;;;;;;;4970617;28;21009;-43
2022/10/05 01:35:14;;;;;;;32.20;25.63;;;;;;;;;;4970813;28;20610;-42
2022/10/05 01:37:49;;;;;;;30.37;24.13;;;;;;;;;;4971040;28;20180;-41
2022/10/05 01:40:21;;;;;;;29.20;24.30;;;;;;;;;;4968802;28;20319;-41
2022/10/05 01:43:10;;;;;;;33.23;26.20;;;;;;;;;;4968609;28;20559;-43
2022/10/05 01:45:39;;;;;;;39.43;29.10;;;;;;;;;;4976973;28;20312;-42
2022/10/05 01:48:13;;;;;;;34.00;26.97;;;;;;;;;;4977563;28;20181;-41
2022/10/05 01:50:42;;;;;;;35.83;27.57;;;;;;;;;;4975899;28;20208;-41
2022/10/05 01:53:52;;;;;;;37.23;27.47;;;;;;;;;;4980977;28;20538;-44
2022/10/05 01:56:23;;;;;;;38.23;29.47;;;;;;;;;;4993762;28;20172;-43
2022/10/05 01:59:01;;;;;;;34.60;26.77;;;;;;;;;;4980622;28;20228;-43
2022/10/05 02:01:30;;;;;;;42.27;32.20;;;;;;;;;;4979853;28;21251;-43
2022/10/05 02:04:01;;;;;;;45.50;33.37;;;;;;;;;;4983550;28;20177;-43
2022/10/05 02:06:30;;;;;;;63.53;42.43;;;;;;;;;;4982012;28;20628;-42
2022/10/05 02:09:06;;;;;;;56.73;42.77;;;;;;;;;;4979290;28;20271;-42
2022/10/05 02:11:33;;;;;;;63.60;46.20;;;;;;;;;;4980103;28;20601;-43
2022/10/05 02:14:02;;;;;;;51.37;40.37;;;;;;;;;;5000185;28;20177;-41
2022/10/05 02:16:28;;;;;;;61.43;43.93;;;;;;;;;;4985523;28;20992;-43
2022/10/05 02:18:58;;;;;;;58.40;41.70;;;;;;;;;;4984677;28;20182;-41
2022/10/05 02:21:25;;;;;;;58.83;42.70;;;;;;;;;;4983469;28;20705;-42
2022/10/05 02:23:53;;;;;;;49.97;37.13;;;;;;;;;;4982748;28;20273;-43
2022/10/05 02:26:20;;;;;;;49.23;37.43;;;;;;;;;;4987372;28;20723;-42
2022/10/05 02:28:58;;;;;;;69.60;45.67;;;;;;;;;;4986995;28;20184;-42
2022/10/05 02:31:36;;;;;;;68.40;48.77;;;;;;;;;;4984744;28;20292;-42
2022/10/05 02:34:21;;;;;;;58.63;41.83;;;;;;;;;;4983024;28;20811;-42
2022/10/05 02:36:49;;;;;;;53.57;39.90;;;;;;;;;;4984724;28;20284;-43
2022/10/05 02:39:21;;;;;;;55.33;40.80;;;;;;;;;;4974130;28;20203;-43
2022/10/05 02:41:52;;;;;;;57.30;43.43;;;;;;;;;;4970500;28;21041;-43
2022/10/05 02:44:20;;;;;;;54.20;41.40;;;;;;;;;;4972100;28;20525;-43
2022/10/05 02:46:51;;;;;;;63.90;44.60;;;;;;;;;;4970965;28;20245;-41
2022/10/05 02:49:33;;;;;;;59.10;42.93;;;;;;;;;;4973427;28;20665;-45
2022/10/05 02:52:18;;;;;;;62.60;43.57;;;;;;;;;;4977489;28;20986;-43
2022/10/05 02:54:52;;;;;;;64.63;46.30;;;;;;;;;;4984001;28;20292;-42
2022/10/05 02:57:21;;;;;;;60.07;42.73;;;;;;;;;;4979531;28;20376;-43
2022/10/05 02:59:51;;;;;;;61.53;43.93;;;;;;;;;;4981715;28;20492;-43
2022/10/05 03:02:21;;;;;;;71.77;49.80;;;;;;;;;;4982454;28;20272;-43
2022/10/05 03:04:57;;;;;;;62.77;45.40;;;;;;;;;;4983387;28;20440;-43
2022/10/05 03:07:23;;;;;;;61.53;45.47;;;;;;;;;;4978899;28;20208;-42
2022/10/05 03:09:56;;;;;;;70.13;49.60;;;;;;;;;;4974779;28;20574;-42
2022/10/05 03:12:35;;;;;;;61.27;43.57;;;;;;;;;;4978234;28;20219;-42
2022/10/05 03:15:10;;;;;;;60.20;43.70;;;;;;;;;;4986998;28;20787;-43
2022/10/05 03:17:54;;;;;;;61.77;43.83;;;;;;;;;;4981967;28;20232;-43
2022/10/05 03:20:25;;;;;;;69.07;47.53;;;;;;;;;;4982031;28;20203;-43
2022/10/05 03:23:00;;;;;;;72.07;47.30;;;;;;;;;;4981877;28;20209;-43
2022/10/05 03:25:32;;;;;;;77.87;51.80;;;;;;;;;;4982247;28;20520;-43
2022/10/05 03:28:02;;;;;;;67.17;47.77;;;;;;;;;;4983878;28;20771;-43
2022/10/05 03:30:31;;;;;;;66.03;46.50;;;;;;;;;;4981931;28;20531;-43
2022/10/05 03:33:20;;;;;;;66.83;47.10;;;;;;;;;;4985438;28;20196;-42
2022/10/05 03:36:05;;;;;;;65.50;47.27;;;;;;;;;;4984870;28;20749;-43
2022/10/05 03:38:41;;;;;;;71.63;48.97;;;;;;;;;;4980742;28;20185;-42
2022/10/05 03:41:07;;;;;;;61.97;45.93;;;;;;;;;;4978097;28;20394;-42
2022/10/05 03:43:33;;;;;;;65.37;46.43;;;;;;;;;;4980655;28;20189;-45
2022/10/05 03:46:07;;;;;;;58.47;42.87;;;;;;;;;;4976668;28;20530;-43
2022/10/05 03:48:33;;;;;;;65.57;43.03;;;;;;;;;;4969484;28;20838;-43
2022/10/05 03:51:15;;;;;;;59.67;43.63;;;;;;;;;;4967238;28;20183;-42
2022/10/05 03:53:43;;;;;;;65.73;47.87;;;;;;;;;;4974074;28;20515;-42
2022/10/05 03:56:13;;;;;;;70.23;48.47;;;;;;;;;;4972142;28;20212;-42
2022/10/05 03:58:51;;;;;;;79.83;54.73;;;;;;;;;;4966433;28;20264;-43
2022/10/05 04:01:20;;;;;;;102.20;64.37;;;;;;;;;;4967576;28;20254;-43
2022/10/05 04:03:54;;;;;;;102.97;63.90;;;;;;;;;;4972457;28;20787;-43
2022/10/05 04:06:34;;;;;;;106.97;66.67;;;;;;;;;;4978601;28;20733;-42
2022/10/05 04:09:02;;;;;;;92.27;62.83;;;;;;;;;;4977516;28;20980;-41
2022/10/05 04:11:28;;;;;;;88.17;61.30;;;;;;;;;;4969951;28;20386;-43
2022/10/05 04:14:04;;;;;;;99.07;64.23;;;;;;;;;;4967406;28;20177;-45
2022/10/05 04:16:33;;;;;;;106.17;65.70;;;;;;;;;;4970601;28;20514;-41
2022/10/05 04:19:02;;;;;;;104.17;67.20;;;;;;;;;;4969989;28;20824;-45
2022/10/05 04:21:40;;;;;;;125.73;77.03;;;;;;;;;;4970595;28;20183;-43
2022/10/05 04:24:17;;;;;;;105.83;69.47;;;;;;;;;;4967413;28;21062;-42
2022/10/05 04:26:47;;;;;;;99.60;63.53;;;;;;;;;;4966215;28;20391;-43
2022/10/05 04:29:32;;;;;;;92.47;62.03;;;;;;;;;;4973957;28;20188;-43
2022/10/05 04:32:17;;;;;;;112.53;71.03;;;;;;;;;;4967934;28;20646;-43
2022/10/05 04:34:43;;;;;;;117.47;71.60;;;;;;;;;;4971437;28;20184;-43
2022/10/05 04:37:14;;;;;;;114.67;70.33;;;;;;;;;;4971247;28;20173;-43
2022/10/05 04:39:40;;;;;;;97.73;62.87;;;;;;;;;;4969502;28;20414;-42
2022/10/05 04:42:12;;;;;;;91.90;62.03;;;;;;;;;;4967449;28;20274;-43
2022/10/05 04:44:42;;;;;;;93.60;61.63;;;;;;;;;;4976458;28;21014;-42
2022/10/05 04:47:08;;;;;;;109.40;67.77;;;;;;;;;;4978647;28;20212;-43
2022/10/05 04:49:52;;;;;;;96.73;62.80;;;;;;;;;;4971954;28;20180;-43
2022/10/05 04:52:31;;;;;;;92.53;59.87;;;;;;;;;;4977947;28;20938;-43
2022/10/05 04:55:15;;;;;;;82.17;55.07;;;;;;;;;;4982795;28;20174;-43
2022/10/05 04:58:05;;;;;;;81.33;55.23;;;;;;;;;;4975779;28;20367;-43
2022/10/05 05:00:37;;;;;;;92.87;59.07;;;;;;;;;;4969084;28;20172;-43
2022/10/05 05:03:28;;;;;;;79.90;54.23;;;;;;;;;;4974721;28;20259;-43
2022/10/05 05:06:00;;;;;;;82.93;52.63;;;;;;;;;;4971985;28;20308;-43
2022/10/05 05:08:52;;;;;;;63.53;46.03;;;;;;;;;;4966000;28;20185;-43
2022/10/05 05:11:26;;;;;;;72.27;46.13;;;;;;;;;;4960331;28;20450;-42
2022/10/05 05:13:58;;;;;;;60.97;42.50;;;;;;;;;;4967673;28;20624;-43
2022/10/05 05:16:41;;;;;;;44.27;32.50;;;;;;;;;;4969410;28;20187;-43
2022/10/05 05:19:10;;;;;;;44.60;33.17;;;;;;;;;;4969530;28;20173;-43
2022/10/05 05:21:55;;;;;;;49.10;36.43;;;;;;;;;;4962137;28;20245;-43
2022/10/05 05:24:28;;;;;;;40.97;30.80;;;;;;;;;;4966622;28;20980;-43
2022/10/05 05:26:54;;;;;;;46.87;33.60;;;;;;;;;;4970460;28;20737;-43
2022/10/05 05:29:36;;;;;;;71.97;42.93;;;;;;;;;;4971691;28;20177;-41
2022/10/05 05:32:21;;;;;;;159.10;50.87;;;;;;;;;;4973107;28;20176;-43
2022/10/05 05:34:50;;;;;;;54.47;39.07;;;;;;;;;;4976801;28;20561;-44
2022/10/05 05:37:43;;;;;;;56.50;39.10;;;;;;;;;;4984548;28;20614;-44
2022/10/05 05:40:16;;;;;;;51.67;36.63;;;;;;;;;;4985190;28;20192;-44
2022/10/05 05:42:48;;;;;;;55.43;38.83;;;;;;;;;;4986638;28;21211;-44
2022/10/05 05:45:16;;;;;;;58.00;40.43;;;;;;;;;;4987534;28;20272;-44
2022/10/05 05:47:44;;;;;;;61.67;42.67;;;;;;;;;;4987226;28;20633;-44
2022/10/05 05:50:26;;;;;;;57.33;37.83;;;;;;;;;;4982967;28;20172;-44
2022/10/05 05:53:13;;;;;;;79.93;47.83;;;;;;;;;;4983195;28;20729;-43
2022/10/05 05:55:40;;;;;;;87.37;52.00;;;;;;;;;;4986517;28;20454;-43
2022/10/05 05:58:16;;;;;;;64.50;45.90;;;;;;;;;;4986475;28;20748;-43
2022/10/05 06:01:00;;;;;;;56.53;41.23;;;;;;;;;;4987716;28;20181;-43
2022/10/05 06:03:31;;;;;;;52.53;38.07;;;;;;;;;;4984499;28;20173;-43
2022/10/05 06:06:01;;;;;;;51.13;37.33;;;;;;;;;;4984793;28;20236;-43
2022/10/05 06:08:47;;;;;;;48.17;36.17;;;;;;;;;;4981542;28;20173;-42
2022/10/05 06:11:22;;;;;;;46.73;35.10;;;;;;;;;;5002246;28;20274;-42
2022/10/05 06:13:48;;;;;;;60.67;42.93;;;;;;;;;;4985229;28;20540;-42
2022/10/05 06:16:19;;;;;;;48.67;37.47;;;;;;;;;;4979231;28;20181;-42
2022/10/05 06:18:57;;;;;;;51.57;37.77;;;;;;;;;;4982593;28;20178;-42
2022/10/05 06:21:29;;;;;;;64.90;42.00;;;;;;;;;;4980705;28;20495;-42
2022/10/05 06:24:01;;;;;;;54.97;39.00;;;;;;;;;;4975825;28;20467;-43
2022/10/05 06:26:31;;;;;;;73.20;48.37;;;;;;;;;;4984819;28;20232;-42
2022/10/05 06:29:00;;;;;;;80.73;50.83;;;;;;;;;;4980450;28;21748;-42
2022/10/05 06:31:29;;;;;;;95.67;57.93;;;;;;;;;;4978862;28;20771;-42
2022/10/05 06:34:05;;;;;;;104.00;63.77;;;;;;;;;;4982153;28;20712;-44
2022/10/05 06:36:31;;;;;;;102.87;63.93;;;;;;;;;;4970165;28;20498;-44
2022/10/05 06:39:06;;;;;;;90.30;59.40;;;;;;;;;;4978416;28;20932;-43
2022/10/05 06:41:41;;;;;;;79.73;55.40;;;;;;;;;;4983482;28;20188;-44
2022/10/05 06:44:16;;;;;;;81.77;54.33;;;;;;;;;;4990816;28;20219;-45
2022/10/05 06:46:48;;;;;;;74.43;50.80;;;;;;;;;;4980000;28;21141;-44
2022/10/05 06:49:14;;;;;;;81.47;55.17;;;;;;;;;;4979010;28;20173;-43
2022/10/05 06:51:43;;;;;;;79.00;53.80;;;;;;;;;;4968536;28;20612;-43
2022/10/05 06:54:15;;;;;;;76.07;53.90;;;;;;;;;;4937987;28;20173;-44
2022/10/05 06:56:48;;;;;;;80.03;53.83;;;;;;;;;;4980861;28;20263;-44
2022/10/05 06:59:17;;;;;;;79.33;54.73;;;;;;;;;;4982305;28;20471;-44
2022/10/05 07:02:15;;;;;;;84.23;55.60;;;;;;;;;;4984403;28;20192;-43
2022/10/05 07:04:44;;;;;;;83.63;55.87;;;;;;;;;;4985062;28;21226;-44
2022/10/05 07:07:22;;;;;;;89.10;58.50;;;;;;;;;;4984714;28;20267;-44
2022/10/05 07:10:04;;;;;;;81.63;55.77;;;;;;;;;;4989176;28;20275;-44
2022/10/05 07:12:35;;;;;;;81.90;55.03;;;;;;;;;;4983686;28;20608;-44
2022/10/05 07:15:07;;;;;;;77.60;53.80;;;;;;;;;;4983048;28;20192;-44
2022/10/05 07:17:43;;;;;;;78.37;53.47;;;;;;;;;;4988531;28;20250;-44
2022/10/05 07:20:26;;;;;;;76.10;54.63;;;;;;;;;;4985560;28;20601;-44
2022/10/05 07:22:57;;;;;;;82.33;55.50;;;;;;;;;;4978038;28;20629;-44
2022/10/05 07:25:30;;;;;;;68.27;49.93;;;;;;;;;;4979379;28;20232;-44
2022/10/05 07:27:56;;;;;;;65.80;49.17;;;;;;;;;;4978917;28;20419;-44
2022/10/05 07:30:23;;;;;;;71.83;51.20;;;;;;;;;;4978760;28;20296;-44
2022/10/05 07:32:49;;;;;;;67.77;49.43;;;;;;;;;;4982343;28;20188;-43
2022/10/05 07:38:04;;;;;;;61.00;45.57;;;;;;;;;;4981027;28;20193;-43
2022/10/05 07:40:30;;;;;;;56.90;45.47;;;;;;;;;;4985077;28;21571;-42
2022/10/05 07:42:56;;;;;;;58.20;43.93;;;;;;;;;;4983969;28;20710;-43
2022/10/05 07:45:28;;;;;;;48.53;40.53;;;;;;;;;;4984118;28;20208;-43
2022/10/05 07:48:12;;;;;;;51.70;40.97;;;;;;;;;;4985397;28;20599;-43
2022/10/05 07:50:43;;;;;;;48.90;39.00;;;;;;;;;;4983290;28;20177;-42
2022/10/05 07:53:21;;;;;;;51.80;39.87;;;;;;;;;;4987717;28;20276;-43
2022/10/05 07:55:51;;;;;;;45.97;38.60;;;;;;;;;;4980899;28;21082;-44
2022/10/05 07:58:26;;;;;;;55.97;41.63;;;;;;;;;;4974472;28;20392;-45
2022/10/05 08:01:28;;;;;;;46.80;37.87;;;;;;;;;;4981217;28;20299;-45
2022/10/05 08:03:54;;;;;;;50.80;39.63;;;;;;;;;;4973354;28;20498;-44
2022/10/05 08:06:26;;;;;;;49.10;37.93;;;;;;;;;;4977003;28;20204;-41
2022/10/05 08:09:02;;;;;;;55.47;41.47;;;;;;;;;;4979545;28;20483;-42
2022/10/05 08:11:37;;;;;;;48.67;38.63;;;;;;;;;;4978947;28;20512;-42
2022/10/05 08:14:09;;;;;;;48.23;37.93;;;;;;;;;;4979598;28;20303;-42
2022/10/05 08:16:37;;;;;;;57.90;42.83;;;;;;;;;;4981879;28;20756;-43
2022/10/05 08:19:30;;;;;;;54.97;40.57;;;;;;;;;;4985720;28;20220;-43
2022/10/05 08:22:00;;;;;;;58.57;43.83;;;;;;;;;;4981804;28;20296;-41
2022/10/05 08:24:35;;;;;;;55.10;43.83;;;;;;;;;;4981773;28;20181;-43
2022/10/05 08:27:04;;;;;;;55.80;42.13;;;;;;;;;;4981601;28;20275;-43
2022/10/05 08:29:37;;;;;;;54.87;43.53;;;;;;;;;;4984516;28;20180;-43
2022/10/05 08:32:23;;;;;;;58.07;44.13;;;;;;;;;;4979984;28;20441;-43
2022/10/05 08:34:52;;;;;;;55.37;40.00;;;;;;;;;;4978625;28;20174;-43
2022/10/05 08:37:23;;;;;;;63.13;45.63;;;;;;;;;;4977994;28;20180;-43
2022/10/05 08:40:00;;;;;;;57.27;45.07;;;;;;;;;;4982892;28;20186;-43
2022/10/05 08:42:32;;;;;;;59.30;45.90;;;;;;;;;;4985028;28;20180;-43
2022/10/05 08:45:30;;;;;;;57.17;43.00;;;;;;;;;;4985213;28;20216;-43
2022/10/05 08:48:15;;;;;;;58.83;46.27;;;;;;;;;;4991636;28;20196;-42
2022/10/05 08:50:52;;;;;;;61.80;47.20;;;;;;;;;;4982072;28;20238;-42
2022/10/05 08:53:37;;;;;;;53.30;43.03;;;;;;;;;;4987171;28;20180;-43
2022/10/05 08:56:03;;;;;;;56.83;44.23;;;;;;;;;;4978842;28;20769;-43
2022/10/05 08:58:48;;;;;;;60.43;45.27;;;;;;;;;;4983108;28;21097;-43
2022/10/05 09:01:32;;;;;;;56.70;44.17;;;;;;;;;;4984786;28;20247;-43
2022/10/05 09:04:08;;;;;;;58.27;44.13;;;;;;;;;;4983923;28;20177;-43
2022/10/05 09:06:46;;;;;;;57.83;44.20;;;;;;;;;;4981179;28;20201;-42
2022/10/05 09:09:31;;;;;;;58.17;43.40;;;;;;;;;;4981349;28;20177;-42
2022/10/05 09:12:16;;;;;;;54.70;43.53;;;;;;;;;;4983764;28;20173;-43
2022/10/05 09:14:50;;;;;;;56.40;42.17;;;;;;;;;;4987582;28;20173;-43
2022/10/05 09:17:16;;;;;;;59.13;46.40;;;;;;;;;;4989476;28;21275;-43
2022/10/05 09:19:42;;;;;;;51.90;43.17;;;;;;;;;;4987028;28;20177;-41
2022/10/05 09:22:26;;;;;;;50.40;42.33;;;;;;;;;;4985278;28;20201;-43
2022/10/05 09:25:07;;;;;;;51.57;41.07;;;;;;;;;;4986301;28;20176;-43
2022/10/05 09:27:38;;;;;;;51.03;41.30;;;;;;;;;;4986761;28;20252;-43
2022/10/05 09:30:07;;;;;;;54.53;40.70;;;;;;;;;;4984018;28;20471;-43
2022/10/05 09:32:51;;;;;;;52.23;40.97;;;;;;;;;;4982697;28;20215;-43
2022/10/05 09:35:26;;;;;;;56.10;45.07;;;;;;;;;;4979651;28;20287;-43
2022/10/05 09:37:59;;;;;;;50.87;41.03;;;;;;;;;;4985157;28;20231;-43
2022/10/05 09:40:40;;;;;;;52.40;42.37;;;;;;;;;;4985199;28;20726;-43
2022/10/05 09:43:12;;;;;;;49.77;38.33;;;;;;;;;;4984499;28;20203;-43
2022/10/05 09:45:38;;;;;;;46.03;38.30;;;;;;;;;;4984149;28;20200;-43
2022/10/05 09:48:24;;;;;;;48.83;38.40;;;;;;;;;;4979884;28;20169;-42
2022/10/05 09:50:53;;;;;;;46.83;35.40;;;;;;;;;;4984010;28;21176;-42
2022/10/05 09:53:26;;;;;;;45.87;37.43;;;;;;;;;;4985961;28;20170;-43
2022/10/05 09:55:52;;;;;;;51.93;42.13;;;;;;;;;;4987345;28;20620;-44
2022/10/05 09:58:19;;;;;;;51.17;41.03;;;;;;;;;;4980436;28;20177;-44
2022/10/05 10:01:04;;;;;;;52.27;41.17;;;;;;;;;;4981701;28;20177;-43
2022/10/05 10:03:42;;;;;;;49.60;39.87;;;;;;;;;;4985865;28;20182;-43
2022/10/05 10:06:27;;;;;;;42.70;34.17;;;;;;;;;;4984568;28;20748;-44
2022/10/05 10:09:13;;;;;;;43.87;36.30;;;;;;;;;;4984703;28;20168;-44
2022/10/05 10:11:43;;;;;;;46.53;36.37;;;;;;;;;;4984711;28;20205;-44
2022/10/05 10:14:09;;;;;;;46.30;36.77;;;;;;;;;;4986700;28;20215;-44
2022/10/05 10:16:54;;;;;;;46.30;35.50;;;;;;;;;;4985910;28;20173;-44
2022/10/05 10:19:26;;;;;;;43.97;36.27;;;;;;;;;;4981809;28;20307;-44
2022/10/05 10:21:52;;;;;;;46.33;36.83;;;;;;;;;;4984408;28;20398;-44
2022/10/05 10:24:27;;;;;;;45.27;35.07;;;;;;;;;;4985408;28;20705;-44
2022/10/05 10:27:12;;;;;;;41.27;34.13;;;;;;;;;;4983899;28;20204;-44
2022/10/05 10:29:38;;;;;;;43.97;33.33;;;;;;;;;;4986053;28;20565;-44
2022/10/05 10:32:19;;;;;;;40.03;31.60;;;;;;;;;;4983799;28;20654;-44
2022/10/05 10:35:05;;;;;;;39.70;31.80;;;;;;;;;;4985152;28;20177;-44
2022/10/05 10:37:39;;;;;;;35.60;29.40;;;;;;;;;;4986466;28;20243;-44
2022/10/05 10:40:05;;;;;;;39.67;30.93;;;;;;;;;;4983835;28;20208;-44
2022/10/05 10:42:50;;;;;;;43.63;35.93;;;;;;;;;;4981871;28;20220;-44
2022/10/05 10:45:18;;;;;;;38.87;30.53;;;;;;;;;;4981942;28;20177;-44
2022/10/05 10:47:52;;;;;;;39.60;33.37;;;;;;;;;;4986790;28;20192;-44
2022/10/05 10:50:27;;;;;;;43.60;34.67;;;;;;;;;;4987367;28;20180;-44
2022/10/05 10:53:12;;;;;;;39.33;33.47;;;;;;;;;;4983721;28;20467;-44
2022/10/05 10:55:44;;;;;;;39.73;31.47;;;;;;;;;;4986619;28;20276;-44
2022/10/05 10:58:38;;;;;;;36.03;29.67;;;;;;;;;;4990801;28;20176;-44
2022/10/05 11:01:23;;;;;;;39.27;30.00;;;;;;;;;;4986622;28;20323;-44
2022/10/05 11:03:59;;;;;;;33.30;28.83;;;;;;;;;;4981636;28;20356;-44
2022/10/05 11:06:33;;;;;;;36.87;29.80;;;;;;;;;;4981159;28;20255;-43
2022/10/05 11:09:17;;;;;;;33.17;27.73;;;;;;;;;;4986003;28;20457;-43
2022/10/05 11:12:02;;;;;;;32.90;26.60;;;;;;;;;;4987590;28;20188;-43
2022/10/05 11:14:31;;;;;;;30.07;23.23;;;;;;;;;;4988543;28;20455;-43
2022/10/05 11:16:57;;;;;;;25.97;20.90;;;;;;;;;;4983751;28;20185;-43
2022/10/05 11:19:50;;;;;;;21.43;18.67;;;;;;;;;;4984803;28;20847;-43
2022/10/05 11:22:19;;;;;;;31.17;23.30;;;;;;;;;;4990128;28;20312;-43
2022/10/05 11:25:04;;;;;;;27.03;21.23;;;;;;;;;;4988612;28;20185;-43
2022/10/05 11:27:30;;;;;;;25.23;18.80;;;;;;;;;;4986350;28;21030;-44
2022/10/05 11:29:58;;;;;;;28.73;20.50;;;;;;;;;;4984271;28;20897;-44
2022/10/05 11:32:33;;;;;;;22.63;17.83;;;;;;;;;;4983695;28;20679;-44
2022/10/05 11:35:02;;;;;;;25.97;17.60;;;;;;;;;;4988912;28;20588;-44
2022/10/05 11:37:48;;;;;;;22.87;17.20;;;;;;;;;;4985782;28;20185;-44
2022/10/05 11:40:32;;;;;;;23.40;18.30;;;;;;;;;;4982542;28;20209;-44
2022/10/05 11:43:10;;;;;;;19.60;15.70;;;;;;;;;;4978819;28;20223;-44
2022/10/05 11:46:04;;;;;;;17.30;14.40;;;;;;;;;;4978963;28;20262;-44
2022/10/05 11:48:54;;;;;;;23.73;17.07;;;;;;;;;;4980458;28;20172;-44
2022/10/05 11:51:39;;;;;;;27.50;22.03;;;;;;;;;;4979736;28;20405;-44
2022/10/05 11:54:20;;;;;;;26.60;20.00;;;;;;;;;;4983562;28;20520;-43
2022/10/05 11:56:46;;;;;;;20.73;16.43;;;;;;;;;;4986781;28;20316;-42
2022/10/05 11:59:19;;;;;;;19.87;15.27;;;;;;;;;;4983581;28;20207;-44
2022/10/05 12:02:01;;;;;;;19.47;14.00;;;;;;;;;;4986250;28;20259;-44
2022/10/05 12:04:44;;;;;;;19.93;16.40;;;;;;;;;;4980537;28;20598;-43
2022/10/05 12:07:13;;;;;;;21.60;16.43;;;;;;;;;;4978280;28;20197;-43
2022/10/05 12:10:12;;;;;;;26.90;19.47;;;;;;;;;;4983311;28;20558;-42
2022/10/05 12:12:30;;;;;;;23.53;18.23;;;;;;;;;;4985555;28;20196;-43
2022/10/05 12:15:03;;;;;;;22.13;18.90;;;;;;;;;;4983785;28;20736;-42
2022/10/05 12:17:46;;;;;;;24.63;19.60;;;;;;;;;;4984350;28;20517;-43
2022/10/05 12:20:32;;;;;;;15.87;13.30;;;;;;;;;;4987552;28;20623;-43
2022/10/05 12:23:01;;;;;;;15.40;10.00;;;;;;;;;;4987856;28;20495;-43
2022/10/05 12:25:27;;;;;;;12.23;9.07;;;;;;;;;;4984902;28;20676;-43
2022/10/05 12:27:56;;;;;;;10.03;9.03;;;;;;;;;;4982194;28;20326;-43
2022/10/05 12:30:41;;;;;;;11.40;9.23;;;;;;;;;;4983313;28;20495;-43
2022/10/05 12:33:16;;;;;;;12.07;8.97;;;;;;;;;;4986467;28;20759;-43
2022/10/05 12:35:48;;;;;;;17.10;12.30;;;;;;;;;;4987138;28;20177;-43
2022/10/05 12:38:27;;;;;;;13.70;11.60;;;;;;;;;;4987576;28;20793;-43
2022/10/05 12:41:12;;;;;;;16.23;11.73;;;;;;;;;;4984224;28;20168;-44
2022/10/05 12:43:53;;;;;;;15.77;11.60;;;;;;;;;;4987727;28;20208;-43
2022/10/05 12:46:32;;;;;;;16.23;12.47;;;;;;;;;;4986238;28;20215;-42
2022/10/05 12:49:11;;;;;;;18.00;12.97;;;;;;;;;;4983235;28;20264;-43
2022/10/05 12:51:53;;;;;;;16.17;13.33;;;;;;;;;;4984642;28;20727;-44
2022/10/05 12:54:28;;;;;;;17.87;13.57;;;;;;;;;;4985113;28;20169;-44
2022/10/05 12:56:56;;;;;;;19.23;13.47;;;;;;;;;;4986352;28;20623;-44
2022/10/05 12:59:28;;;;;;;15.77;12.03;;;;;;;;;;4978395;28;20649;-44
2022/10/05 13:02:07;;;;;;;13.07;10.07;;;;;;;;;;4981089;28;20282;-43
2022/10/05 13:04:52;;;;;;;18.63;11.67;;;;;;;;;;4980225;28;20451;-42
2022/10/05 13:07:21;;;;;;;15.87;10.83;;;;;;;;;;4981248;28;20618;-44
2022/10/05 13:09:52;;;;;;;17.33;12.50;;;;;;;;;;4984840;28;20300;-44
2022/10/05 13:12:24;;;;;;;15.87;11.80;;;;;;;;;;4983899;28;20173;-44
2022/10/05 13:15:01;;;;;;;14.40;11.57;;;;;;;;;;4983754;28;20500;-42
2022/10/05 13:17:37;;;;;;;14.77;10.80;;;;;;;;;;4982877;28;20356;-44
2022/10/05 13:20:26;;;;;;;16.53;10.57;;;;;;;;;;4982196;28;20759;-44
2022/10/05 13:23:05;;;;;;;16.27;11.13;;;;;;;;;;4981189;28;20193;-44
2022/10/05 13:25:34;;;;;;;14.07;9.63;;;;;;;;;;4982319;28;20395;-44
2022/10/05 13:28:09;;;;;;;12.60;9.63;;;;;;;;;;4947075;28;20299;-44
2022/10/05 13:30:36;;;;;;;15.33;9.87;;;;;;;;;;4982652;28;20172;-43
2022/10/05 13:33:21;;;;;;;20.93;12.03;;;;;;;;;;4988463;28;20177;-43
2022/10/05 13:36:26;;;;;;;16.27;13.13;;;;;;;;;;4982306;28;20388;-43
2022/10/05 13:38:52;;;;;;;15.23;11.07;;;;;;;;;;4960076;28;20423;-44
2022/10/05 13:41:30;;;;;;;16.37;12.13;;;;;;;;;;4962988;28;20551;-42
2022/10/05 13:44:13;;;;;;;16.10;11.57;;;;;;;;;;4977274;28;20189;-43
2022/10/05 13:46:42;;;;;;;12.77;9.97;;;;;;;;;;5000672;28;20397;-43
2022/10/05 13:49:30;;;;;;;11.83;9.67;;;;;;;;;;4985279;28;20173;-43
2022/10/05 13:52:08;;;;;;;15.90;11.33;;;;;;;;;;4986032;28;20674;-43
2022/10/05 13:54:43;;;;;;;15.57;11.53;;;;;;;;;;4988230;28;20291;-43
2022/10/05 13:57:28;;;;;;;14.70;9.47;;;;;;;;;;4986977;28;20184;-44
2022/10/05 13:59:59;;;;;;;14.97;9.63;;;;;;;;;;4985008;28;20289;-43
2022/10/05 14:02:37;;;;;;;11.60;9.50;;;;;;;;;;4983964;28;20292;-43
2022/10/05 14:05:33;;;;;;;12.00;8.80;;;;;;;;;;4980546;28;20176;-43
2022/10/05 14:08:01;;;;;;;10.27;8.07;;;;;;;;;;4981416;28;20654;-43
2022/10/05 14:10:33;;;;;;;14.93;9.87;;;;;;;;;;4988872;28;20243;-43
2022/10/05 14:12:59;;;;;;;11.10;8.17;;;;;;;;;;4984026;28;20551;-43
2022/10/05 14:15:31;;;;;;;11.40;8.47;;;;;;;;;;4980607;28;20533;-43
2022/10/05 14:17:57;;;;;;;11.47;8.33;;;;;;;;;;4985069;28;20188;-43
2022/10/05 14:20:29;;;;;;;9.77;7.60;;;;;;;;;;4981663;28;20235;-43
2022/10/05 14:22:57;;;;;;;13.73;8.60;;;;;;;;;;4981681;28;20347;-43
2022/10/05 14:25:24;;;;;;;12.00;7.37;;;;;;;;;;4984440;28;20231;-43
2022/10/05 14:27:53;;;;;;;9.70;6.30;;;;;;;;;;4982357;28;20185;-43
2022/10/05 14:30:22;;;;;;;9.07;6.67;;;;;;;;;;4986274;28;20177;-43
2022/10/05 14:32:50;;;;;;;10.80;6.70;;;;;;;;;;4984826;28;20929;-43
2022/10/05 14:35:20;;;;;;;9.47;6.23;;;;;;;;;;4985970;28;20380;-43
2022/10/05 14:37:46;;;;;;;9.50;5.40;;;;;;;;;;4982539;28;20173;-43
2022/10/05 14:40:24;;;;;;;6.10;4.80;;;;;;;;;;4980738;28;20185;-43
2022/10/05 14:42:50;;;;;;;7.60;4.90;;;;;;;;;;4979690;28;20270;-43
2022/10/05 14:45:20;;;;;;;10.27;5.50;;;;;;;;;;4983983;28;20459;-43
2022/10/05 14:47:49;;;;;;;7.50;4.93;;;;;;;;;;4987475;28;20740;-42
2022/10/05 14:50:17;;;;;;;11.07;5.10;;;;;;;;;;4988292;28;20543;-43
2022/10/05 14:52:47;;;;;;;9.27;5.50;;;;;;;;;;4987006;28;20173;-44
2022/10/05 14:55:20;;;;;;;8.17;5.40;;;;;;;;;;4986721;28;20284;-43
2022/10/05 14:57:46;;;;;;;11.80;6.57;;;;;;;;;;4984794;28;20473;-43
2022/10/05 15:00:17;;;;;;;6.40;4.67;;;;;;;;;;4984224;28;20177;-44
2022/10/05 15:03:03;;;;;;;10.80;5.83;;;;;;;;;;4985272;28;20655;-43
2022/10/05 15:05:35;;;;;;;7.83;4.87;;;;;;;;;;4985110;28;20593;-43